createdAt,value
2018-03-12T00:00:43.577Z,16.75
2018-03-12T00:03:19.320Z,14.95
2018-03-12T00:05:49.003Z,15.45
2018-03-12T00:08:24.058Z,15.80
2018-03-12T00:10:51.993Z,15.63
2018-03-12T00:13:28.342Z,16.30
2018-03-12T00:15:57.163Z,15.73
2018-03-12T00:18:33.649Z,14.90
2018-03-12T00:21:09.523Z,16.80
2018-03-12T00:23:46.269Z,15.90
2018-03-12T00:26:17.729Z,15.82
2018-03-12T00:28:47.437Z,16.42
2018-03-12T00:31:23.860Z,15.10
2018-03-12T00:33:51.682Z,17.35
2018-03-12T00:36:29.192Z,16.37
2018-03-12T00:39:05.127Z,16.00
2018-03-12T00:41:35.320Z,16.75
2018-03-12T00:44:10.641Z,15.63
2018-03-12T00:46:41.014Z,16.35
2018-03-12T00:49:17.698Z,17.23
2018-03-12T00:51:46.468Z,16.77
2018-03-12T00:54:22.015Z,19.67
2018-03-12T00:56:51.251Z,17.15
2018-03-12T00:59:22.443Z,18.00
2018-03-12T01:01:52.752Z,17.92
2018-03-12T01:04:24.053Z,16.58
2018-03-12T01:06:55.490Z,15.32
2018-03-12T01:09:32.369Z,16.80
2018-03-12T01:12:08.006Z,17.17
2018-03-12T01:14:45.005Z,17.12
2018-03-12T01:17:21.754Z,15.68
2018-03-12T01:19:57.370Z,16.10
2018-03-12T01:22:28.611Z,18.90
2018-03-12T01:25:06.197Z,17.65
2018-03-12T01:27:41.947Z,17.00
2018-03-12T01:30:20.286Z,18.40
2018-03-12T01:32:57.332Z,17.70
2018-03-12T01:35:34.598Z,17.92
2018-03-12T01:38:11.878Z,18.58
2018-03-12T01:40:48.770Z,15.75
2018-03-12T01:43:26.094Z,15.90
2018-03-12T01:46:02.542Z,17.95
2018-03-12T01:48:41.965Z,16.00
2018-03-12T01:51:19.834Z,16.60
2018-03-12T01:53:58.301Z,15.70
2018-03-12T01:56:35.450Z,17.35
2018-03-12T01:59:12.274Z,15.95
2018-03-12T02:01:55.628Z,16.05
2018-03-12T02:04:33.308Z,16.80
2018-03-12T02:07:09.385Z,17.30
2018-03-12T02:09:44.732Z,17.92
2018-03-12T02:12:23.543Z,17.58
2018-03-12T02:15:00.422Z,16.17
2018-03-12T02:17:37.337Z,17.65
2018-03-12T02:20:13.935Z,18.60
2018-03-12T02:22:50.407Z,17.00
2018-03-12T02:25:26.017Z,17.67
2018-03-12T02:28:02.580Z,17.90
2018-03-12T02:30:38.131Z,17.45
2018-03-12T02:33:17.003Z,16.75
2018-03-12T02:35:52.792Z,16.77
2018-03-12T02:38:31.766Z,17.92
2018-03-12T02:41:09.879Z,17.45
2018-03-12T02:43:46.740Z,15.55
2018-03-12T02:46:23.404Z,17.05
2018-03-12T02:49:01.725Z,16.60
2018-03-12T02:51:37.670Z,15.30
2018-03-12T02:54:15.810Z,17.50
2018-03-12T02:56:51.430Z,16.75
2018-03-12T02:59:27.767Z,19.25
2018-03-12T03:02:04.790Z,19.20
2018-03-12T03:04:43.638Z,19.70
2018-03-12T03:07:20.450Z,18.42
2018-03-12T03:09:50.691Z,18.15
2018-03-12T03:12:27.301Z,17.70
2018-03-12T03:15:03.985Z,17.87
2018-03-12T03:17:40.841Z,17.90
2018-03-12T03:20:17.329Z,15.55
2018-03-12T03:22:54.222Z,18.30
2018-03-12T03:25:36.000Z,17.35
2018-03-12T03:28:11.089Z,18.10
2018-03-12T03:30:46.904Z,17.23
2018-03-12T03:33:23.105Z,18.27
2018-03-12T03:36:00.622Z,17.62
2018-03-12T03:38:37.148Z,17.92
2018-03-12T03:41:13.762Z,17.00
2018-03-12T03:43:50.822Z,16.87
2018-03-12T03:46:26.844Z,16.42
2018-03-12T03:49:02.973Z,15.07
2018-03-12T03:51:38.376Z,15.63
2018-03-12T03:54:14.414Z,15.60
2018-03-12T03:56:50.170Z,14.40
2018-03-12T03:59:26.497Z,14.18
2018-03-12T04:02:02.543Z,14.25
2018-03-12T04:04:41.347Z,14.35
2018-03-12T04:07:18.473Z,15.07
2018-03-12T04:09:54.962Z,13.13
2018-03-12T04:12:32.198Z,14.23
2018-03-12T04:15:08.388Z,14.35
2018-03-12T04:17:44.358Z,14.18
2018-03-12T04:20:20.014Z,14.45
2018-03-12T04:22:55.398Z,12.80
2018-03-12T04:25:32.256Z,12.80
2018-03-12T04:28:09.547Z,13.75
2018-03-12T04:30:48.469Z,13.62
2018-03-12T04:33:31.159Z,13.15
2018-03-12T04:36:06.233Z,12.48
2018-03-12T04:38:44.005Z,12.40
2018-03-12T04:41:19.470Z,14.70
2018-03-12T04:43:55.459Z,13.23
2018-03-12T04:46:32.207Z,13.38
2018-03-12T04:49:14.415Z,13.23
2018-03-12T04:51:51.451Z,13.93
2018-03-12T04:54:28.759Z,13.30
2018-03-12T04:57:04.000Z,13.48
2018-03-12T04:59:42.055Z,12.50
2018-03-12T05:02:18.727Z,13.27
2018-03-12T05:04:56.717Z,13.50
2018-03-12T05:07:33.924Z,13.25
2018-03-12T05:10:10.622Z,12.98
2018-03-12T05:12:46.240Z,12.68
2018-03-12T05:15:23.233Z,11.75
2018-03-12T05:18:01.123Z,11.63
2018-03-12T05:20:37.481Z,11.57
2018-03-12T05:23:14.171Z,11.57
2018-03-12T05:25:50.473Z,13.18
2018-03-12T05:28:25.931Z,12.55
2018-03-12T05:31:06.975Z,10.93
2018-03-12T05:33:37.491Z,11.88
2018-03-12T05:36:14.105Z,12.45
2018-03-12T05:38:50.921Z,11.65
2018-03-12T05:41:29.527Z,11.70
2018-03-12T05:44:06.793Z,10.55
2018-03-12T05:46:44.170Z,10.68
2018-03-12T05:49:25.781Z,11.85
2018-03-12T05:52:02.991Z,13.60
2018-03-12T05:54:39.466Z,12.18
2018-03-12T05:57:15.730Z,11.48
2018-03-12T05:59:53.048Z,11.98
2018-03-12T06:02:28.937Z,11.50
2018-03-12T06:05:06.696Z,13.00
2018-03-12T06:07:45.356Z,12.18
2018-03-12T06:10:22.516Z,11.93
2018-03-12T06:13:00.430Z,12.82
2018-03-12T06:15:38.280Z,11.93
2018-03-12T06:18:14.361Z,12.82
2018-03-12T06:20:49.918Z,13.18
2018-03-12T06:23:26.990Z,12.20
2018-03-12T06:26:06.172Z,12.20
2018-03-12T06:28:43.266Z,13.60
2018-03-12T06:31:20.294Z,12.05
2018-03-12T06:33:57.307Z,12.25
2018-03-12T06:36:37.275Z,13.02
2018-03-12T06:39:15.928Z,12.73
2018-03-12T06:41:55.994Z,13.07
2018-03-12T06:44:35.409Z,13.15
2018-03-12T06:47:11.247Z,12.85
2018-03-12T06:49:48.935Z,9.52
2018-03-12T06:52:25.953Z,12.93
2018-03-12T06:55:02.806Z,13.18
2018-03-12T06:57:38.912Z,12.43
2018-03-12T07:00:17.865Z,12.10
2018-03-12T07:02:55.786Z,12.50
2018-03-12T07:05:32.698Z,13.23
2018-03-12T07:08:09.883Z,14.20
2018-03-12T07:10:47.552Z,14.32
2018-03-12T07:13:24.724Z,13.40
2018-03-12T07:16:00.717Z,14.63
2018-03-12T07:18:36.572Z,13.70
2018-03-12T07:21:14.150Z,13.90
2018-03-12T07:23:52.490Z,13.70
2018-03-12T07:26:30.045Z,14.98
2018-03-12T07:29:06.448Z,13.70
2018-03-12T07:31:41.764Z,12.65
2018-03-12T07:34:17.758Z,12.82
2018-03-12T07:36:52.876Z,13.02
2018-03-12T07:39:31.351Z,13.73
2018-03-12T07:42:08.980Z,13.82
2018-03-12T07:44:48.030Z,13.07
2018-03-12T07:47:25.027Z,13.50
2018-03-12T07:50:02.771Z,14.57
2018-03-12T07:52:40.915Z,12.37
2018-03-12T07:55:18.162Z,12.70
2018-03-12T07:57:53.494Z,14.82
2018-03-12T08:00:31.120Z,12.05
2018-03-12T08:03:08.817Z,13.40
2018-03-12T08:05:44.472Z,12.27
2018-03-12T08:08:19.407Z,12.43
2018-03-12T08:10:56.867Z,11.55
2018-03-12T08:13:33.873Z,11.85
2018-03-12T08:16:12.361Z,12.52
2018-03-12T08:18:50.508Z,11.82
2018-03-12T08:21:28.634Z,11.55
2018-03-12T08:24:09.980Z,11.25
2018-03-12T08:26:45.757Z,10.52
2018-03-12T08:29:23.638Z,11.10
2018-03-12T08:32:02.711Z,11.12
2018-03-12T08:34:40.645Z,10.90
2018-03-12T08:37:16.936Z,9.65
2018-03-12T08:39:53.346Z,9.93
2018-03-12T08:42:33.251Z,10.55
2018-03-12T08:45:08.875Z,10.90
2018-03-12T08:47:48.770Z,10.32
2018-03-12T08:50:25.116Z,10.95
2018-03-12T08:53:01.854Z,11.25
2018-03-12T08:55:40.315Z,10.68
2018-03-12T08:58:18.213Z,13.10
2018-03-12T09:00:53.957Z,12.45
2018-03-12T09:03:30.668Z,10.80
2018-03-12T09:06:09.231Z,10.63
2018-03-12T09:08:47.094Z,10.35
2018-03-12T09:11:24.280Z,10.75
2018-03-12T09:14:00.693Z,9.73
2018-03-12T09:16:38.746Z,9.73
2018-03-12T09:19:18.027Z,9.25
2018-03-12T09:21:54.472Z,9.65
2018-03-12T09:24:32.111Z,10.38
2018-03-12T09:27:08.442Z,9.43
2018-03-12T09:29:44.174Z,8.45
2018-03-12T09:32:20.691Z,9.05
2018-03-12T09:34:58.041Z,9.10
2018-03-12T09:37:34.425Z,9.18
2018-03-12T09:40:13.199Z,8.57
2018-03-12T09:42:51.118Z,8.88
2018-03-12T09:45:28.135Z,9.27
2018-03-12T09:48:07.060Z,8.95
2018-03-12T09:50:43.808Z,8.85
2018-03-12T09:53:23.637Z,8.90
2018-03-12T09:56:00.027Z,10.82
2018-03-12T09:58:37.280Z,9.70
2018-03-12T10:01:07.159Z,8.85
2018-03-12T10:03:45.439Z,9.95
2018-03-12T10:06:22.929Z,8.23
2018-03-12T10:08:58.992Z,8.77
2018-03-12T10:11:37.605Z,8.63
2018-03-12T10:14:13.413Z,8.27
2018-03-12T10:16:51.796Z,8.48
2018-03-12T10:19:34.191Z,8.80
2018-03-12T10:22:14.269Z,7.37
2018-03-12T10:24:53.297Z,7.47
2018-03-12T10:27:30.475Z,8.32
2018-03-12T10:30:05.916Z,7.70
2018-03-12T10:32:44.963Z,7.43
2018-03-12T10:35:23.217Z,7.70
2018-03-12T10:37:59.899Z,8.23
2018-03-12T10:40:37.540Z,8.50
2018-03-12T10:43:15.712Z,7.43
2018-03-12T10:45:53.500Z,6.07
2018-03-12T10:48:29.042Z,4.47
2018-03-12T10:51:06.132Z,4.70
2018-03-12T10:53:41.566Z,4.93
2018-03-12T10:56:18.749Z,5.00
2018-03-12T10:58:55.260Z,4.57
2018-03-12T11:01:32.362Z,2.97
2018-03-12T11:04:15.893Z,2.27
2018-03-12T11:06:59.167Z,2.57
2018-03-12T11:09:37.287Z,1.80
2018-03-12T11:12:16.651Z,3.20
2018-03-12T11:14:56.051Z,2.57
2018-03-12T11:17:35.428Z,1.90
2018-03-12T11:20:13.530Z,1.73
2018-03-12T11:22:53.447Z,1.60
2018-03-12T11:25:31.103Z,2.27
2018-03-12T11:28:09.033Z,2.37
2018-03-12T11:30:45.410Z,2.37
2018-03-12T11:33:21.338Z,2.03
2018-03-12T11:35:51.562Z,1.97
2018-03-12T11:38:21.375Z,1.90
2018-03-12T11:40:53.810Z,2.60
2018-03-12T11:43:24.357Z,2.90
2018-03-12T11:45:52.180Z,2.78
2018-03-12T11:48:20.131Z,3.10
2018-03-12T11:50:49.209Z,2.23
2018-03-12T11:53:21.566Z,1.52
2018-03-12T11:55:54.696Z,2.80
2018-03-12T11:58:22.764Z,2.37
2018-03-12T12:00:51.973Z,3.10
2018-03-12T12:03:19.963Z,2.90
2018-03-12T12:05:48.020Z,3.33
2018-03-12T12:08:18.514Z,2.90
2018-03-12T12:10:46.996Z,3.00
2018-03-12T12:13:16.685Z,2.55
2018-03-12T12:15:50.396Z,2.77
2018-03-12T12:18:18.344Z,3.10
2018-03-12T12:20:47.337Z,2.90
2018-03-12T12:23:17.827Z,2.20
2018-03-12T12:25:48.926Z,2.90
2018-03-12T12:28:22.809Z,3.10
2018-03-12T12:30:54.059Z,2.67
2018-03-12T12:33:24.655Z,2.63
2018-03-12T12:36:02.148Z,2.75
2018-03-12T12:38:33.287Z,2.67
2018-03-12T12:41:10.259Z,2.70
2018-03-12T12:43:52.560Z,2.80
2018-03-12T12:46:20.850Z,2.30
2018-03-12T12:48:51.785Z,2.60
2018-03-12T12:51:21.681Z,2.80
2018-03-12T12:53:49.609Z,2.80
2018-03-12T12:56:18.361Z,2.50
2018-03-12T12:58:47.726Z,2.63
2018-03-12T13:01:17.776Z,2.73
2018-03-12T13:03:46.689Z,2.10
2018-03-12T13:06:15.616Z,2.70
2018-03-12T13:08:45.016Z,3.17
2018-03-12T13:11:13.134Z,2.40
2018-03-12T13:13:43.160Z,1.83
2018-03-12T13:16:12.697Z,2.47
2018-03-12T13:18:43.153Z,2.60
2018-03-12T13:21:16.442Z,2.30
2018-03-12T13:23:46.898Z,2.77
2018-03-12T13:26:15.068Z,2.47
2018-03-12T13:28:45.593Z,2.80
2018-03-12T13:31:22.836Z,2.37
2018-03-12T13:33:53.570Z,2.50
2018-03-12T13:36:29.461Z,3.00
2018-03-12T13:38:58.818Z,2.30
2018-03-12T13:41:29.018Z,1.55
2018-03-12T13:43:59.058Z,1.83
2018-03-12T13:46:29.225Z,2.03
2018-03-12T13:49:00.032Z,2.37
2018-03-12T13:51:30.635Z,1.80
2018-03-12T13:54:00.754Z,2.40
2018-03-12T13:56:31.652Z,2.25
2018-03-12T13:59:06.956Z,2.25
2018-03-12T14:01:44.246Z,2.15
2018-03-12T14:04:21.454Z,2.20
2018-03-12T14:06:57.568Z,2.27
2018-03-12T14:09:35.600Z,2.50
2018-03-12T14:12:12.873Z,2.57
2018-03-12T14:14:48.811Z,2.80
2018-03-12T14:17:26.695Z,2.13
2018-03-12T14:19:55.070Z,1.60
2018-03-12T14:22:28.483Z,1.87
2018-03-12T14:24:59.691Z,1.97
2018-03-12T14:27:38.821Z,2.00
2018-03-12T14:30:07.875Z,1.53
2018-03-12T14:32:44.821Z,1.80
2018-03-12T14:35:15.048Z,2.27
2018-03-12T14:37:47.438Z,2.33
2018-03-12T14:40:21.029Z,2.30
2018-03-12T14:42:58.910Z,2.65
2018-03-12T14:45:35.819Z,2.65
2018-03-12T14:48:21.753Z,2.92
2018-03-12T14:51:02.341Z,2.70
2018-03-12T14:53:38.495Z,2.92
2018-03-12T14:56:14.233Z,0.70
2018-03-12T14:58:51.056Z,2.50
2018-03-12T15:01:29.148Z,2.70
2018-03-12T15:04:11.206Z,2.55
2018-03-12T15:06:46.893Z,2.17
2018-03-12T15:09:26.932Z,2.62
2018-03-12T15:12:06.435Z,2.75
2018-03-12T15:14:42.310Z,2.85
2018-03-12T15:17:17.720Z,3.10
2018-03-12T15:19:54.204Z,3.97
2018-03-12T15:22:26.975Z,2.85
2018-03-12T15:25:03.454Z,2.55
2018-03-12T15:27:40.579Z,2.80
2018-03-12T15:30:17.839Z,3.05
2018-03-12T15:32:55.442Z,4.00
2018-03-12T15:35:33.272Z,3.30
2018-03-12T15:38:10.990Z,3.20
2018-03-12T15:40:49.251Z,2.67
2018-03-12T15:43:27.385Z,3.90
2018-03-12T15:46:07.151Z,3.33
2018-03-12T15:48:46.892Z,3.20
2018-03-12T15:51:24.745Z,3.22
2018-03-12T15:54:01.704Z,2.85
2018-03-12T15:56:43.781Z,2.80
2018-03-12T15:59:19.714Z,3.17
2018-03-12T16:01:56.935Z,3.15
2018-03-12T16:04:33.309Z,2.90
2018-03-12T16:07:11.376Z,2.90
2018-03-12T16:09:50.932Z,2.65
2018-03-12T16:12:27.900Z,3.20
2018-03-12T16:15:04.581Z,2.90
2018-03-12T16:17:40.339Z,3.20
2018-03-12T16:20:17.334Z,3.42
2018-03-12T16:22:58.833Z,2.70
2018-03-12T16:25:37.239Z,3.40
2018-03-12T16:28:13.422Z,3.60
2018-03-12T16:30:49.432Z,3.33
2018-03-12T16:33:26.517Z,3.10
2018-03-12T16:35:56.617Z,3.05
2018-03-12T16:38:26.701Z,3.35
2018-03-12T16:40:57.568Z,3.00
2018-03-12T16:43:28.568Z,3.55
2018-03-12T16:45:58.935Z,2.70
2018-03-12T16:48:29.360Z,2.97
2018-03-12T16:51:00.612Z,3.30
2018-03-12T16:53:36.847Z,3.03
2018-03-12T16:56:15.258Z,3.10
2018-03-12T16:58:51.705Z,2.90
2018-03-12T17:01:27.945Z,1.10
2018-03-12T17:04:05.021Z,2.92
2018-03-12T17:06:42.298Z,1.65
2018-03-12T17:09:12.922Z,3.30
2018-03-12T17:11:45.508Z,3.22
2018-03-12T17:14:14.361Z,3.45
2018-03-12T17:16:42.332Z,2.87
2018-03-12T17:19:11.281Z,2.53
2018-03-12T17:21:40.803Z,3.50
2018-03-12T17:24:08.821Z,3.55
2018-03-12T17:26:38.631Z,2.72
2018-03-12T17:29:08.577Z,2.80
2018-03-12T17:31:37.552Z,3.20
2018-03-12T17:34:05.585Z,1.33
2018-03-12T17:36:33.943Z,3.15
2018-03-12T17:39:02.307Z,3.30
2018-03-12T17:41:32.707Z,3.50
2018-03-12T17:44:02.157Z,4.35
2018-03-12T17:46:30.654Z,3.70
2018-03-12T17:48:58.534Z,3.60
2018-03-12T17:51:28.285Z,3.15
2018-03-12T17:53:58.258Z,3.10
2018-03-12T17:56:26.301Z,3.12
2018-03-12T17:58:58.182Z,2.92
2018-03-12T18:01:26.833Z,3.17
2018-03-12T18:03:57.108Z,3.30
2018-03-12T18:06:31.813Z,3.28
2018-03-12T18:09:02.379Z,2.97
2018-03-12T18:11:34.421Z,3.37
2018-03-12T18:14:13.299Z,3.60
2018-03-12T18:16:50.429Z,3.55
2018-03-12T18:19:29.235Z,3.60
2018-03-12T18:22:01.613Z,3.90
2018-03-12T18:24:38.638Z,2.95
2018-03-12T18:29:39.427Z,4.07
2018-03-12T18:32:16.401Z,3.83
2018-03-12T18:34:51.761Z,3.85
2018-03-12T18:37:31.524Z,4.10
2018-03-12T18:40:09.251Z,4.03
2018-03-12T18:42:45.164Z,3.92
2018-03-12T18:45:22.005Z,3.87
2018-03-12T18:47:57.999Z,4.15
2018-03-12T18:50:33.666Z,4.55
2018-03-12T18:53:11.553Z,4.53
2018-03-12T18:55:48.754Z,4.53
2018-03-12T18:58:26.450Z,4.37
2018-03-12T19:01:01.029Z,4.55
2018-03-12T19:03:36.344Z,5.00
2018-03-12T19:06:06.469Z,3.97
2018-03-12T19:08:36.919Z,4.00
2018-03-12T19:11:06.864Z,4.37
2018-03-12T19:13:37.553Z,5.00
2018-03-12T19:16:07.326Z,4.07
2018-03-12T19:18:38.843Z,3.75
2018-03-12T19:21:14.596Z,4.57
2018-03-12T19:23:51.906Z,3.90
2018-03-12T19:26:28.583Z,4.22
2018-03-12T19:29:04.587Z,4.35
2018-03-12T19:31:40.700Z,4.10
2018-03-12T19:34:17.494Z,4.10
2018-03-12T19:36:54.141Z,4.90
2018-03-12T19:39:29.526Z,4.70
2018-03-12T19:42:07.929Z,3.92
2018-03-12T19:44:45.218Z,4.72
2018-03-12T19:47:21.723Z,4.22
2018-03-12T19:49:59.989Z,2.28
2018-03-12T19:52:37.795Z,4.65
2018-03-12T19:55:14.355Z,4.22
2018-03-12T19:57:51.792Z,4.75
2018-03-12T20:00:33.537Z,3.97
2018-03-12T20:03:12.820Z,4.72
2018-03-12T20:05:51.794Z,4.80
2018-03-12T20:08:33.629Z,4.20
2018-03-12T20:11:11.369Z,5.00
2018-03-12T20:14:00.196Z,4.65
2018-03-12T20:16:36.053Z,4.18
2018-03-12T20:19:11.583Z,4.62
2018-03-12T20:21:47.371Z,5.20
2018-03-12T20:24:23.199Z,4.87
2018-03-12T20:26:52.741Z,4.97
2018-03-12T20:29:22.639Z,4.97
2018-03-12T20:31:58.506Z,2.55
2018-03-12T20:34:36.639Z,4.47
2018-03-12T20:37:16.770Z,4.93
2018-03-12T20:39:54.162Z,5.50
2018-03-12T20:42:30.104Z,3.70
2018-03-12T20:45:12.464Z,4.03
2018-03-12T20:47:50.187Z,4.60
2018-03-12T20:50:27.442Z,5.37
2018-03-12T20:53:06.210Z,4.30
2018-03-12T20:55:41.356Z,4.68
2018-03-12T20:58:18.052Z,5.45
2018-03-12T21:00:54.036Z,4.80
2018-03-12T21:03:31.784Z,4.10
2018-03-12T21:06:13.690Z,5.35
2018-03-12T21:08:50.392Z,5.00
2018-03-12T21:11:28.163Z,4.60
2018-03-12T21:14:05.023Z,5.03
2018-03-12T21:16:41.760Z,4.82
2018-03-12T21:19:17.971Z,4.95
2018-03-12T21:21:53.508Z,4.80
2018-03-12T21:24:28.461Z,5.57
2018-03-12T21:27:04.574Z,5.75
2018-03-12T21:29:39.723Z,5.22
2018-03-12T21:32:14.983Z,5.43
2018-03-12T21:34:50.969Z,6.28
2018-03-12T21:37:27.138Z,5.47
2018-03-12T21:40:05.318Z,6.18
2018-03-12T21:42:42.647Z,6.25
2018-03-12T21:45:20.386Z,5.90
2018-03-12T21:47:55.955Z,6.45
2018-03-12T21:50:32.101Z,6.45
2018-03-12T21:53:07.810Z,5.18
2018-03-12T21:55:43.129Z,6.80
2018-03-12T21:58:22.647Z,6.80
2018-03-12T22:00:59.378Z,6.15
2018-03-12T22:03:39.028Z,6.75
2018-03-12T22:06:13.884Z,6.60
2018-03-12T22:08:51.731Z,6.15
2018-03-12T22:11:27.254Z,6.20
2018-03-12T22:14:05.150Z,5.68
2018-03-12T22:16:41.586Z,6.65
2018-03-12T22:19:17.274Z,6.00
2018-03-12T22:21:56.972Z,6.85
2018-03-12T22:24:33.516Z,7.30
2018-03-12T22:27:12.738Z,7.65
2018-03-12T22:29:49.724Z,7.62
2018-03-12T22:32:25.775Z,7.53
2018-03-12T22:35:02.299Z,8.20
2018-03-12T22:37:44.240Z,8.18
2018-03-12T22:40:21.215Z,8.02
2018-03-12T22:42:57.053Z,7.82
2018-03-12T22:45:33.477Z,8.30
2018-03-12T22:48:10.115Z,7.50
2018-03-12T22:50:46.860Z,7.75
2018-03-12T22:53:24.237Z,7.95
2018-03-12T22:56:01.325Z,7.47
2018-03-12T22:58:39.005Z,7.47
2018-03-12T23:01:15.878Z,7.25
2018-03-12T23:03:52.449Z,7.68
2018-03-12T23:06:29.139Z,7.18
2018-03-12T23:09:10.923Z,8.02
2018-03-12T23:11:48.603Z,7.20
2018-03-12T23:14:24.347Z,7.68
2018-03-12T23:17:00.980Z,6.00
2018-03-12T23:19:37.641Z,6.80
2018-03-12T23:22:13.763Z,6.68
2018-03-12T23:24:49.722Z,6.60
2018-03-12T23:27:26.137Z,6.35
2018-03-12T23:30:03.371Z,6.10
2018-03-12T23:32:45.086Z,6.90
2018-03-12T23:35:23.126Z,6.03
2018-03-12T23:37:59.568Z,6.43
2018-03-12T23:40:34.843Z,6.72
2018-03-12T23:43:13.373Z,6.50
2018-03-12T23:45:50.380Z,6.78
2018-03-12T23:48:26.768Z,6.65
2018-03-12T23:51:04.390Z,6.37
2018-03-12T23:53:40.071Z,6.12
2018-03-12T23:56:18.729Z,6.03
2018-03-12T23:58:56.527Z,6.90
